Time;durP1;ratioP1;P1;durP2;ratioP2;P2;SDS_P1;SDS_P2;PMS_P1;PMS_P2;Temp;Humidity;BMP_temperature;BMP_pressure;BME280_temperature;BME280_humidity;BME280_pressure;Samples;Min_cycle;Max_cycle;Signal;HPM_P1;HPM_P2
2021/10/11 00:01:21;;;;;;;7.32;2.60;;;;;;;;;;5032291;28;20049;-54
2021/10/11 00:03:48;;;;;;;4.90;2.55;;;;;;;;;;5015030;28;20101;-51
2021/10/11 00:06:15;;;;;;;5.85;2.67;;;;;;;;;;5032104;28;20022;-56
2021/10/11 00:08:42;;;;;;;9.15;2.92;;;;;;;;;;5032346;28;20049;-54
2021/10/11 00:11:09;;;;;;;6.38;2.50;;;;;;;;;;5032344;28;20022;-53
2021/10/11 00:13:36;;;;;;;5.40;2.60;;;;;;;;;;5032235;28;20025;-47
2021/10/11 00:16:03;;;;;;;5.85;2.95;;;;;;;;;;5032127;28;20443;-44
2021/10/11 00:18:30;;;;;;;9.00;2.78;;;;;;;;;;5032252;28;20096;-55
2021/10/11 00:20:57;;;;;;;4.40;2.40;;;;;;;;;;5032098;28;20101;-48
2021/10/11 00:23:24;;;;;;;3.88;2.72;;;;;;;;;;5032192;28;20079;-44
2021/10/11 00:25:51;;;;;;;7.18;2.47;;;;;;;;;;5032129;28;20025;-60
2021/10/11 00:28:18;;;;;;;4.88;2.72;;;;;;;;;;5032063;28;20066;-51
2021/10/11 00:30:45;;;;;;;5.88;2.92;;;;;;;;;;5031759;28;20050;-51
2021/10/11 00:33:12;;;;;;;6.72;2.92;;;;;;;;;;5032003;28;20473;-53
2021/10/11 00:35:40;;;;;;;8.05;3.47;;;;;;;;;;5031661;28;20119;-40
2021/10/11 00:38:07;;;;;;;6.40;2.83;;;;;;;;;;5023031;28;20033;-41
2021/10/11 00:40:34;;;;;;;4.80;2.47;;;;;;;;;;5024384;28;20025;-52
2021/10/11 00:43:01;;;;;;;9.57;2.95;;;;;;;;;;5026009;28;20048;-55
2021/10/11 00:45:28;;;;;;;6.30;2.60;;;;;;;;;;5020572;28;20034;-55
2021/10/11 00:47:55;;;;;;;5.50;2.95;;;;;;;;;;5023843;28;20131;-56
2021/10/11 00:50:22;;;;;;;8.63;3.25;;;;;;;;;;5026566;28;20033;-41
2021/10/11 00:52:49;;;;;;;7.70;3.40;;;;;;;;;;5024123;28;20036;-41
2021/10/11 00:55:16;;;;;;;12.27;2.65;;;;;;;;;;5023838;28;20561;-41
2021/10/11 00:57:43;;;;;;;6.55;2.78;;;;;;;;;;5019951;28;20025;-42
2021/10/11 01:00:10;;;;;;;7.00;3.15;;;;;;;;;;5022892;28;20029;-45
2021/10/11 01:02:37;;;;;;;9.43;3.10;;;;;;;;;;5027009;28;20105;-43
2021/10/11 01:05:04;;;;;;;12.55;3.00;;;;;;;;;;5024841;28;20025;-42
2021/10/11 01:07:31;;;;;;;15.02;2.90;;;;;;;;;;5025911;28;20034;-44
2021/10/11 01:09:58;;;;;;;11.23;3.63;;;;;;;;;;5019760;28;20108;-48
2021/10/11 01:12:26;;;;;;;15.60;3.00;;;;;;;;;;5026358;28;20556;-41
2021/10/11 01:14:53;;;;;;;13.77;3.72;;;;;;;;;;5021683;28;20065;-41
2021/10/11 01:17:20;;;;;;;16.95;4.43;;;;;;;;;;5031663;28;20116;-42
2021/10/11 01:19:48;;;;;;;16.35;4.05;;;;;;;;;;5028768;28;20030;-47
2021/10/11 01:22:15;;;;;;;14.05;3.75;;;;;;;;;;5027667;28;20030;-54
2021/10/11 01:24:42;;;;;;;10.85;3.60;;;;;;;;;;5030641;28;20030;-47
2021/10/11 01:27:09;;;;;;;13.15;3.80;;;;;;;;;;5027282;28;20050;-42
2021/10/11 01:29:36;;;;;;;20.60;4.15;;;;;;;;;;5026404;28;20029;-42
2021/10/11 01:32:03;;;;;;;16.73;4.22;;;;;;;;;;5028162;28;20048;-43
2021/10/11 01:34:30;;;;;;;14.23;3.88;;;;;;;;;;5029122;28;20022;-43
2021/10/11 01:36:57;;;;;;;26.80;5.55;;;;;;;;;;5028067;28;20032;-43
2021/10/11 01:39:24;;;;;;;29.15;7.18;;;;;;;;;;5024799;28;20061;-42
2021/10/11 01:41:51;;;;;;;36.85;9.75;;;;;;;;;;5026286;28;20104;-41
2021/10/11 01:44:18;;;;;;;96.55;23.88;;;;;;;;;;5028448;28;20048;-41
2021/10/11 01:46:45;;;;;;;101.72;23.77;;;;;;;;;;5027302;28;20025;-40
2021/10/11 01:49:12;;;;;;;85.90;21.33;;;;;;;;;;5026817;28;20025;-40
2021/10/11 01:51:39;;;;;;;79.63;20.45;;;;;;;;;;5029057;28;20013;-46
2021/10/11 01:54:07;;;;;;;99.93;21.30;;;;;;;;;;5028779;28;20029;-44
2021/10/11 01:56:34;;;;;;;83.50;21.58;;;;;;;;;;5029625;28;20017;-40
2021/10/11 01:59:00;;;;;;;93.63;24.92;;;;;;;;;;5028067;28;20021;-41
2021/10/11 02:01:28;;;;;;;108.75;28.20;;;;;;;;;;5023673;28;20025;-53
2021/10/11 02:03:55;;;;;;;131.35;34.55;;;;;;;;;;5027179;28;20022;-41
2021/10/11 02:06:22;;;;;;;119.40;34.38;;;;;;;;;;5029137;28;20381;-41
2021/10/11 02:08:50;;;;;;;115.38;32.75;;;;;;;;;;5029613;28;20026;-40
2021/10/11 02:11:17;;;;;;;92.65;28.17;;;;;;;;;;5031517;28;20444;-44
2021/10/11 02:13:44;;;;;;;97.10;28.42;;;;;;;;;;5030554;28;20024;-47
2021/10/11 02:16:12;;;;;;;99.13;27.73;;;;;;;;;;5033135;28;20064;-43
2021/10/11 02:18:39;;;;;;;97.47;28.10;;;;;;;;;;5033678;28;20097;-42
2021/10/11 02:21:06;;;;;;;97.82;27.65;;;;;;;;;;5033366;28;20371;-40
2021/10/11 02:23:33;;;;;;;83.65;24.92;;;;;;;;;;5031038;28;20025;-41
2021/10/11 02:26:00;;;;;;;87.90;24.65;;;;;;;;;;5032569;28;20045;-42
2021/10/11 02:28:27;;;;;;;80.10;24.60;;;;;;;;;;5030773;28;20430;-44
2021/10/11 02:30:54;;;;;;;82.75;23.77;;;;;;;;;;5013091;28;20139;-45
2021/10/11 02:33:21;;;;;;;82.43;23.15;;;;;;;;;;5031957;28;20021;-40
2021/10/11 02:35:48;;;;;;;79.25;22.58;;;;;;;;;;5032921;28;20061;-40
2021/10/11 02:38:15;;;;;;;76.28;22.27;;;;;;;;;;5032914;28;20422;-40
2021/10/11 02:40:42;;;;;;;73.88;22.38;;;;;;;;;;5015051;28;20025;-40
2021/10/11 02:43:09;;;;;;;69.63;21.65;;;;;;;;;;5032505;28;20025;-40
2021/10/11 02:45:36;;;;;;;75.47;21.88;;;;;;;;;;5032977;28;20033;-40
2021/10/11 02:48:06;;;;;;;77.70;22.55;;;;;;;;;;5034087;28;20076;-40
2021/10/11 02:50:33;;;;;;;65.78;20.80;;;;;;;;;;5033775;28;20399;-42
2021/10/11 02:53:00;;;;;;;72.55;22.10;;;;;;;;;;5033801;28;20373;-46
2021/10/11 02:55:27;;;;;;;59.33;19.75;;;;;;;;;;5033818;28;20378;-43
2021/10/11 02:57:54;;;;;;;61.20;18.48;;;;;;;;;;5033516;28;20389;-45
2021/10/11 03:00:21;;;;;;;61.80;19.05;;;;;;;;;;5033806;28;20033;-45
2021/10/11 03:02:49;;;;;;;64.30;20.35;;;;;;;;;;5033637;28;20416;-44
2021/10/11 03:05:16;;;;;;;66.65;20.33;;;;;;;;;;5033892;28;20032;-44
2021/10/11 03:07:43;;;;;;;56.72;18.83;;;;;;;;;;5033643;28;20024;-44
2021/10/11 03:10:10;;;;;;;58.80;18.45;;;;;;;;;;5033425;28;20021;-46
2021/10/11 03:12:37;;;;;;;62.92;19.40;;;;;;;;;;5033559;28;20033;-49
2021/10/11 03:15:05;;;;;;;58.50;18.23;;;;;;;;;;5033333;28;20033;-44
2021/10/11 03:17:32;;;;;;;58.97;17.70;;;;;;;;;;5033195;28;20381;-45
2021/10/11 03:19:59;;;;;;;54.53;17.70;;;;;;;;;;5033492;28;20385;-45
2021/10/11 03:22:29;;;;;;;56.95;18.63;;;;;;;;;;5033197;28;20416;-43
2021/10/11 03:24:56;;;;;;;54.67;17.33;;;;;;;;;;5033128;28;20442;-44
2021/10/11 03:27:23;;;;;;;55.30;16.67;;;;;;;;;;5032979;28;20030;-48
2021/10/11 03:29:50;;;;;;;54.03;16.90;;;;;;;;;;5032862;28;20442;-44
2021/10/11 03:32:17;;;;;;;53.80;15.95;;;;;;;;;;5032997;28;20032;-46
2021/10/11 03:34:44;;;;;;;50.83;16.58;;;;;;;;;;5032925;28;20034;-40
2021/10/11 03:37:11;;;;;;;55.75;17.33;;;;;;;;;;5032975;28;20025;-46
2021/10/11 03:39:38;;;;;;;44.78;15.95;;;;;;;;;;5033047;28;20036;-43
2021/10/11 03:42:05;;;;;;;52.70;15.95;;;;;;;;;;5032920;28;20384;-49
2021/10/11 03:44:32;;;;;;;47.80;16.10;;;;;;;;;;5032798;28;20041;-45
2021/10/11 03:46:59;;;;;;;50.13;15.80;;;;;;;;;;5032707;28;20028;-47
2021/10/11 03:49:26;;;;;;;48.42;15.30;;;;;;;;;;5032557;28;20454;-47
2021/10/11 03:51:53;;;;;;;49.25;15.30;;;;;;;;;;5032360;28;20401;-44
2021/10/11 03:54:20;;;;;;;47.25;15.57;;;;;;;;;;5032331;28;20630;-43
2021/10/11 03:56:47;;;;;;;40.08;14.68;;;;;;;;;;5032440;28;20392;-45
2021/10/11 03:59:14;;;;;;;46.83;14.80;;;;;;;;;;5032449;28;20026;-45
2021/10/11 04:01:41;;;;;;;42.50;14.65;;;;;;;;;;5032285;28;20386;-46
2021/10/11 04:04:09;;;;;;;42.47;13.85;;;;;;;;;;5032554;28;20071;-47
2021/10/11 04:06:36;;;;;;;45.15;14.73;;;;;;;;;;5032492;28;20069;-41
2021/10/11 04:09:03;;;;;;;42.67;15.13;;;;;;;;;;5032302;28;20436;-53
2021/10/11 04:11:31;;;;;;;38.55;14.30;;;;;;;;;;5032398;28;20032;-44
2021/10/11 04:13:58;;;;;;;42.13;14.82;;;;;;;;;;5032186;28;20022;-43
2021/10/11 04:16:26;;;;;;;41.17;13.40;;;;;;;;;;5032213;28;20511;-43
2021/10/11 04:18:53;;;;;;;39.70;13.70;;;;;;;;;;5032165;28;20539;-42
2021/10/11 04:21:20;;;;;;;39.38;13.52;;;;;;;;;;5032446;28;20022;-44
2021/10/11 04:23:47;;;;;;;36.63;12.95;;;;;;;;;;5032225;28;20501;-47
2021/10/11 04:26:14;;;;;;;37.00;12.48;;;;;;;;;;5031894;28;20560;-41
2021/10/11 04:28:41;;;;;;;35.53;13.25;;;;;;;;;;5032199;28;20025;-44
2021/10/11 04:31:08;;;;;;;38.72;12.88;;;;;;;;;;5032078;28;20635;-41
2021/10/11 04:33:35;;;;;;;37.97;13.48;;;;;;;;;;5032141;28;20029;-43
2021/10/11 04:36:02;;;;;;;39.20;13.23;;;;;;;;;;5032086;28;20516;-41
2021/10/11 04:38:29;;;;;;;38.75;13.18;;;;;;;;;;5031811;28;20482;-45
2021/10/11 04:40:56;;;;;;;36.17;13.02;;;;;;;;;;5031831;28;20024;-47
2021/10/11 04:43:23;;;;;;;37.40;12.60;;;;;;;;;;5014348;28;20026;-47
2021/10/11 04:45:50;;;;;;;34.65;12.18;;;;;;;;;;5031845;28;20123;-50
2021/10/11 04:48:18;;;;;;;36.75;12.50;;;;;;;;;;5035650;28;20072;-43
2021/10/11 04:50:45;;;;;;;44.50;12.85;;;;;;;;;;5035992;28;20022;-57
2021/10/11 04:53:12;;;;;;;35.83;11.68;;;;;;;;;;5035643;28;20032;-44
2021/10/11 04:55:39;;;;;;;34.67;12.60;;;;;;;;;;5035592;28;20033;-50
2021/10/11 04:58:06;;;;;;;33.35;11.60;;;;;;;;;;5035724;28;20076;-46
2021/10/11 05:00:34;;;;;;;30.00;11.25;;;;;;;;;;5035646;28;20032;-48
2021/10/11 05:03:01;;;;;;;33.97;12.30;;;;;;;;;;5035508;28;20025;-42
2021/10/11 05:05:28;;;;;;;31.15;11.57;;;;;;;;;;5035562;28;20029;-43
2021/10/11 05:07:55;;;;;;;31.85;10.65;;;;;;;;;;5035388;28;20358;-42
2021/10/11 05:10:22;;;;;;;29.20;10.75;;;;;;;;;;5035342;28;20083;-42
2021/10/11 05:12:49;;;;;;;29.77;11.48;;;;;;;;;;5035687;28;20020;-41
2021/10/11 05:15:16;;;;;;;28.15;10.52;;;;;;;;;;5035301;28;20037;-41
2021/10/11 05:17:44;;;;;;;30.88;10.65;;;;;;;;;;5035569;28;20470;-42
2021/10/11 05:20:11;;;;;;;30.35;11.15;;;;;;;;;;5035433;28;20362;-48
2021/10/11 05:22:39;;;;;;;32.63;11.25;;;;;;;;;;5035080;28;20021;-43
2021/10/11 05:25:07;;;;;;;29.23;10.77;;;;;;;;;;5035121;28;20354;-42
2021/10/11 05:27:34;;;;;;;30.55;10.80;;;;;;;;;;5035129;28;20025;-46
2021/10/11 05:30:01;;;;;;;33.17;11.07;;;;;;;;;;5034828;28;20508;-43
2021/10/11 05:32:31;;;;;;;28.35;10.80;;;;;;;;;;5035115;28;20100;-44
2021/10/11 05:34:59;;;;;;;29.67;10.25;;;;;;;;;;5034929;28;20036;-40
2021/10/11 05:37:27;;;;;;;29.02;10.30;;;;;;;;;;5035290;28;20104;-42
2021/10/11 05:39:54;;;;;;;29.10;10.93;;;;;;;;;;5034812;28;20034;-45
2021/10/11 05:42:21;;;;;;;28.80;9.85;;;;;;;;;;5035047;28;20060;-42
2021/10/11 05:44:48;;;;;;;26.25;10.18;;;;;;;;;;5035141;28;20370;-45
2021/10/11 05:47:15;;;;;;;29.05;10.13;;;;;;;;;;5034899;28;20021;-43
2021/10/11 05:49:42;;;;;;;26.25;9.85;;;;;;;;;;5034697;28;20027;-42
2021/10/11 05:52:09;;;;;;;24.67;9.38;;;;;;;;;;5034930;28;20029;-42
2021/10/11 05:54:37;;;;;;;23.80;9.77;;;;;;;;;;5034671;28;20036;-43
2021/10/11 05:57:04;;;;;;;23.67;9.40;;;;;;;;;;5034315;28;20113;-52
2021/10/11 05:59:31;;;;;;;27.83;9.43;;;;;;;;;;5034669;28;20029;-48
2021/10/11 06:01:58;;;;;;;22.45;9.65;;;;;;;;;;5033548;28;20028;-44
2021/10/11 06:04:25;;;;;;;26.55;9.50;;;;;;;;;;5034264;28;20025;-45
2021/10/11 06:06:52;;;;;;;22.33;8.27;;;;;;;;;;5034298;28;20028;-47
2021/10/11 06:09:19;;;;;;;24.70;9.13;;;;;;;;;;5034275;28;20033;-47
2021/10/11 06:11:47;;;;;;;23.30;8.20;;;;;;;;;;5034149;28;20026;-40
2021/10/11 06:14:15;;;;;;;33.00;9.35;;;;;;;;;;5034306;28;20500;-47
2021/10/11 06:16:42;;;;;;;22.80;9.07;;;;;;;;;;5016562;28;20033;-45
2021/10/11 06:19:09;;;;;;;21.83;8.35;;;;;;;;;;5034206;28;20048;-43
2021/10/11 06:21:36;;;;;;;23.75;8.30;;;;;;;;;;5034210;28;20017;-46
2021/10/11 06:24:03;;;;;;;20.98;9.18;;;;;;;;;;5033999;28;20053;-47
2021/10/11 06:26:30;;;;;;;23.73;8.80;;;;;;;;;;5033923;28;20033;-43
2021/10/11 06:28:58;;;;;;;21.88;8.00;;;;;;;;;;5034075;28;20037;-49
2021/10/11 06:31:25;;;;;;;20.77;8.60;;;;;;;;;;5033925;28;20520;-43
2021/10/11 06:33:52;;;;;;;22.15;8.25;;;;;;;;;;5033845;28;20030;-43
2021/10/11 06:36:19;;;;;;;23.42;8.43;;;;;;;;;;5034006;28;20033;-45
2021/10/11 06:38:46;;;;;;;20.02;8.57;;;;;;;;;;5033796;28;20025;-44
2021/10/11 06:41:13;;;;;;;22.35;8.77;;;;;;;;;;5033771;28;20027;-43
2021/10/11 06:43:40;;;;;;;19.48;7.30;;;;;;;;;;5033845;28;20026;-42
2021/10/11 06:46:07;;;;;;;19.13;7.75;;;;;;;;;;5033687;28;20029;-42
2021/10/11 06:48:34;;;;;;;22.77;7.82;;;;;;;;;;5033952;28;20029;-42
2021/10/11 06:51:01;;;;;;;18.73;7.80;;;;;;;;;;5033827;28;20035;-42
2021/10/11 06:53:28;;;;;;;20.38;7.20;;;;;;;;;;5034052;28;20021;-43
2021/10/11 06:55:55;;;;;;;16.17;7.55;;;;;;;;;;5034144;28;20117;-44
2021/10/11 06:58:22;;;;;;;18.85;8.15;;;;;;;;;;5034294;28;20021;-47
2021/10/11 07:00:49;;;;;;;19.45;7.80;;;;;;;;;;5033832;28;20384;-45
2021/10/11 07:03:23;;;;;;;18.38;6.88;;;;;;;;;;5034014;28;20021;-48
2021/10/11 07:05:50;;;;;;;18.90;8.07;;;;;;;;;;5033960;28;20393;-45
2021/10/11 07:08:17;;;;;;;16.90;6.80;;;;;;;;;;5034132;28;20025;-41
2021/10/11 07:10:44;;;;;;;17.13;7.13;;;;;;;;;;5032891;28;20389;-44
2021/10/11 07:13:11;;;;;;;16.20;7.13;;;;;;;;;;5033869;28;20022;-44
2021/10/11 07:15:38;;;;;;;18.38;8.38;;;;;;;;;;5033562;28;20398;-45
2021/10/11 07:18:05;;;;;;;17.92;7.13;;;;;;;;;;5033542;28;20385;-45
2021/10/11 07:20:32;;;;;;;15.57;7.05;;;;;;;;;;5033515;28;20076;-46
2021/10/11 07:22:59;;;;;;;17.77;7.07;;;;;;;;;;5033587;28;20006;-44
2021/10/11 07:25:27;;;;;;;18.00;7.18;;;;;;;;;;5033336;28;20446;-49
2021/10/11 07:27:54;;;;;;;18.17;7.28;;;;;;;;;;5033123;28;20013;-44
2021/10/11 07:30:21;;;;;;;16.73;7.20;;;;;;;;;;5033139;28;20461;-47
2021/10/11 07:32:48;;;;;;;15.38;6.65;;;;;;;;;;5033139;28;20108;-46
2021/10/11 07:35:15;;;;;;;17.30;6.90;;;;;;;;;;5032943;28;20029;-45
2021/10/11 07:37:42;;;;;;;18.83;7.68;;;;;;;;;;5033146;28;20425;-47
2021/10/11 07:40:09;;;;;;;15.40;6.63;;;;;;;;;;5033028;28;20429;-47
2021/10/11 07:42:36;;;;;;;15.25;6.65;;;;;;;;;;5032962;28;20028;-48
2021/10/11 07:45:03;;;;;;;16.63;6.65;;;;;;;;;;5033062;28;20076;-46
2021/10/11 07:47:30;;;;;;;15.48;6.68;;;;;;;;;;5015477;28;20029;-45
2021/10/11 07:49:58;;;;;;;15.05;6.95;;;;;;;;;;5032782;28;20017;-44
2021/10/11 07:52:25;;;;;;;16.75;6.85;;;;;;;;;;5033076;28;20021;-43
2021/10/11 07:54:52;;;;;;;15.27;6.70;;;;;;;;;;5032515;28;20389;-45
2021/10/11 07:57:19;;;;;;;14.07;6.07;;;;;;;;;;5032527;28;20105;-44
2021/10/11 07:59:46;;;;;;;13.75;6.15;;;;;;;;;;5032547;28;20377;-42
2021/10/11 08:02:13;;;;;;;15.90;6.20;;;;;;;;;;5032372;28;20021;-46
2021/10/11 08:04:40;;;;;;;14.77;6.20;;;;;;;;;;5032165;28;20377;-44
2021/10/11 08:07:07;;;;;;;13.70;6.32;;;;;;;;;;5032502;28;20393;-42
2021/10/11 08:09:34;;;;;;;15.18;6.20;;;;;;;;;;5032222;28;20017;-46
2021/10/11 08:12:01;;;;;;;13.50;6.30;;;;;;;;;;5032189;28;20399;-47
2021/10/11 08:14:28;;;;;;;15.98;6.88;;;;;;;;;;5032226;28;20436;-42
2021/10/11 08:16:55;;;;;;;11.98;5.90;;;;;;;;;;5032170;28;20385;-46
2021/10/11 08:19:22;;;;;;;12.75;6.05;;;;;;;;;;5032037;28;20366;-46
2021/10/11 08:21:50;;;;;;;12.70;5.90;;;;;;;;;;5032381;28;20101;-46
2021/10/11 08:24:17;;;;;;;12.63;5.90;;;;;;;;;;5032322;28;20025;-43
2021/10/11 08:26:44;;;;;;;12.85;5.97;;;;;;;;;;5032119;28;20021;-43
2021/10/11 08:29:11;;;;;;;13.48;5.70;;;;;;;;;;5032237;28;20044;-45
2021/10/11 08:31:38;;;;;;;10.68;5.60;;;;;;;;;;5031916;28;20500;-47
2021/10/11 08:34:05;;;;;;;13.82;5.95;;;;;;;;;;5031965;28;20029;-47
2021/10/11 08:36:32;;;;;;;12.80;5.65;;;;;;;;;;5032014;28;20429;-45
2021/10/11 08:38:59;;;;;;;10.15;5.07;;;;;;;;;;5032106;28;20493;-47
2021/10/11 08:41:26;;;;;;;11.77;5.80;;;;;;;;;;5031879;28;20485;-49
2021/10/11 08:43:53;;;;;;;12.10;5.03;;;;;;;;;;5031784;28;20374;-43
2021/10/11 08:46:22;;;;;;;11.85;5.22;;;;;;;;;;5032086;28;20022;-45
2021/10/11 08:48:50;;;;;;;11.18;5.20;;;;;;;;;;5032054;28;20026;-42
2021/10/11 08:51:17;;;;;;;15.00;5.38;;;;;;;;;;5031885;28;20053;-41
2021/10/11 08:53:44;;;;;;;13.70;5.18;;;;;;;;;;5031853;28;20021;-42
2021/10/11 08:56:13;;;;;;;10.30;5.05;;;;;;;;;;5031655;28;20029;-43
2021/10/11 08:58:47;;;;;;;11.52;5.30;;;;;;;;;;5031794;28;20068;-43
2021/10/11 09:01:14;;;;;;;11.30;4.72;;;;;;;;;;5031756;28;20109;-41
2021/10/11 09:03:42;;;;;;;12.35;5.32;;;;;;;;;;5031941;28;20044;-44
2021/10/11 09:06:10;;;;;;;10.60;4.95;;;;;;;;;;5031659;28;20033;-40
2021/10/11 09:08:37;;;;;;;12.80;5.85;;;;;;;;;;5031576;28;20089;-42
2021/10/11 09:11:06;;;;;;;10.13;5.05;;;;;;;;;;5031781;28;20485;-43
2021/10/11 09:13:44;;;;;;;9.68;4.60;;;;;;;;;;5031790;28;20101;-46
2021/10/11 09:16:16;;;;;;;9.07;4.57;;;;;;;;;;5031510;28;20029;-43
2021/10/11 09:19:02;;;;;;;8.73;4.55;;;;;;;;;;5031476;28;20477;-42
2021/10/11 09:21:38;;;;;;;12.75;4.43;;;;;;;;;;5031541;28;20037;-45
2021/10/11 09:24:08;;;;;;;11.77;4.93;;;;;;;;;;5031621;28;20501;-46
2021/10/11 09:27:05;;;;;;;11.77;5.10;;;;;;;;;;5031535;28;20437;-43
2021/10/11 09:29:36;;;;;;;11.80;4.63;;;;;;;;;;5015236;28;20116;-46
2021/10/11 09:32:04;;;;;;;15.23;5.10;;;;;;;;;;5031623;28;20519;-43
2021/10/11 09:34:32;;;;;;;11.75;4.22;;;;;;;;;;5035272;28;20389;-44
2021/10/11 09:36:59;;;;;;;11.38;4.80;;;;;;;;;;5035336;28;20056;-42
2021/10/11 09:39:27;;;;;;;10.48;4.68;;;;;;;;;;5035209;28;20067;-42
2021/10/11 09:41:55;;;;;;;8.10;4.40;;;;;;;;;;5034897;28;20029;-42
2021/10/11 09:44:22;;;;;;;12.40;4.82;;;;;;;;;;5035014;28;20028;-42
2021/10/11 09:47:11;;;;;;;10.43;4.50;;;;;;;;;;5035182;28;20033;-49
2021/10/11 09:49:38;;;;;;;11.10;5.07;;;;;;;;;;5034467;28;20030;-42
2021/10/11 09:52:06;;;;;;;10.23;4.45;;;;;;;;;;5034600;28;20034;-45
2021/10/11 09:54:33;;;;;;;8.52;4.47;;;;;;;;;;5034672;28;20026;-45
2021/10/11 09:57:00;;;;;;;7.82;4.03;;;;;;;;;;5034688;28;20025;-43
2021/10/11 09:59:27;;;;;;;8.23;4.25;;;;;;;;;;5034600;28;20025;-43
2021/10/11 10:01:54;;;;;;;7.22;4.20;;;;;;;;;;5034568;28;20045;-42
2021/10/11 10:04:28;;;;;;;8.70;4.03;;;;;;;;;;5034453;28;20018;-48
2021/10/11 10:06:56;;;;;;;10.80;4.80;;;;;;;;;;5034365;28;20028;-46
2021/10/11 10:09:25;;;;;;;9.55;4.57;;;;;;;;;;5034401;28;20025;-47
2021/10/11 10:11:52;;;;;;;8.02;3.70;;;;;;;;;;5034259;28;20377;-46
2021/10/11 10:14:26;;;;;;;8.23;4.10;;;;;;;;;;5034427;28;20018;-43
2021/10/11 10:16:54;;;;;;;9.32;4.47;;;;;;;;;;5034103;28;20029;-43
2021/10/11 10:19:33;;;;;;;8.40;3.92;;;;;;;;;;5034194;28;20014;-45
2021/10/11 10:22:01;;;;;;;10.57;4.20;;;;;;;;;;5034147;28;20038;-45
2021/10/11 10:24:30;;;;;;;9.70;4.30;;;;;;;;;;5034154;28;20370;-43
2021/10/11 10:27:07;;;;;;;8.07;4.10;;;;;;;;;;5033949;28;20037;-48
2021/10/11 10:29:45;;;;;;;7.82;4.20;;;;;;;;;;5033834;28;20148;-45
2021/10/11 10:32:13;;;;;;;8.65;4.03;;;;;;;;;;5033759;28;20041;-48
2021/10/11 10:34:41;;;;;;;10.43;4.53;;;;;;;;;;5034047;28;20037;-43
2021/10/11 10:37:09;;;;;;;8.75;4.28;;;;;;;;;;5033906;28;20461;-43
2021/10/11 10:39:44;;;;;;;8.68;3.83;;;;;;;;;;5033903;28;20096;-42
2021/10/11 10:42:21;;;;;;;8.05;3.60;;;;;;;;;;5033762;28;20040;-44
2021/10/11 10:44:48;;;;;;;6.68;3.90;;;;;;;;;;5032901;28;20385;-46
2021/10/11 10:47:15;;;;;;;7.13;3.55;;;;;;;;;;5033700;28;20029;-48
2021/10/11 10:49:48;;;;;;;9.68;4.20;;;;;;;;;;5033679;28;20056;-43
2021/10/11 10:52:14;;;;;;;;;;;;;;;;;;5016221;28;20411;-45
2021/10/11 10:54:43;;;;;;;6.95;3.85;;;;;;;;;;5033526;28;20000;-42
2021/10/11 10:57:13;;;;;;;8.45;3.80;;;;;;;;;;5033423;28;20022;-41
2021/10/11 10:59:41;;;;;;;8.50;3.97;;;;;;;;;;5033389;28;20030;-42
2021/10/11 11:02:10;;;;;;;10.10;3.65;;;;;;;;;;5033500;28;20359;-41
2021/10/11 11:04:37;;;;;;;10.50;4.55;;;;;;;;;;5033345;28;20022;-42
2021/10/11 11:07:11;;;;;;;6.40;3.70;;;;;;;;;;5033968;28;20442;-42
2021/10/11 11:09:42;;;;;;;6.82;3.33;;;;;;;;;;5033728;28;20445;-48
2021/10/11 11:12:09;;;;;;;9.07;3.55;;;;;;;;;;5033981;28;20366;-46
2021/10/11 11:14:37;;;;;;;7.00;3.45;;;;;;;;;;5033709;28;20021;-42
2021/10/11 11:17:05;;;;;;;7.15;3.55;;;;;;;;;;5033666;28;20432;-47
2021/10/11 11:19:39;;;;;;;7.65;3.63;;;;;;;;;;5033705;28;20049;-48
2021/10/11 11:22:06;;;;;;;6.00;3.13;;;;;;;;;;5033793;28;20029;-41
2021/10/11 11:24:35;;;;;;;7.13;3.53;;;;;;;;;;5033374;28;20032;-42
2021/10/11 11:27:03;;;;;;;8.23;3.42;;;;;;;;;;5033392;28;20017;-43
2021/10/11 11:29:31;;;;;;;5.57;2.97;;;;;;;;;;5033445;28;20025;-48
2021/10/11 11:31:58;;;;;;;5.88;3.03;;;;;;;;;;5032867;28;20382;-47
2021/10/11 11:34:26;;;;;;;6.10;3.25;;;;;;;;;;5032875;28;20440;-46
2021/10/11 11:36:54;;;;;;;5.35;2.80;;;;;;;;;;5033294;28;20449;-47
2021/10/11 11:39:22;;;;;;;6.22;3.30;;;;;;;;;;5015305;28;20095;-44
2021/10/11 11:41:56;;;;;;;5.05;2.78;;;;;;;;;;5033022;28;20032;-43
2021/10/11 11:44:26;;;;;;;4.38;2.88;;;;;;;;;;5032912;28;20045;-46
2021/10/11 11:47:03;;;;;;;6.45;2.97;;;;;;;;;;5032955;28;20104;-46
2021/10/11 11:49:30;;;;;;;4.75;3.00;;;;;;;;;;5032841;28;20025;-46
2021/10/11 11:52:04;;;;;;;5.75;3.03;;;;;;;;;;5032595;28;20384;-44
2021/10/11 11:54:31;;;;;;;5.80;3.15;;;;;;;;;;5032735;28;20442;-47
2021/10/11 11:56:58;;;;;;;5.88;2.90;;;;;;;;;;5014866;28;20035;-44
2021/10/11 11:59:26;;;;;;;6.05;2.90;;;;;;;;;;5032570;28;20438;-43
2021/10/11 12:01:54;;;;;;;6.15;2.80;;;;;;;;;;5032377;28;20378;-44
2021/10/11 12:04:21;;;;;;;7.32;2.80;;;;;;;;;;5014963;28;20029;-43
2021/10/11 12:06:48;;;;;;;7.95;2.97;;;;;;;;;;5032568;28;20084;-46
2021/10/11 12:09:20;;;;;;;4.95;2.65;;;;;;;;;;5032555;28;20036;-45
2021/10/11 12:11:47;;;;;;;4.57;2.60;;;;;;;;;;5032515;28;20033;-46
2021/10/11 12:14:15;;;;;;;4.78;2.55;;;;;;;;;;5032177;28;20494;-46
2021/10/11 12:16:42;;;;;;;5.80;2.35;;;;;;;;;;5032189;28;20486;-48
2021/10/11 12:19:09;;;;;;;5.90;2.80;;;;;;;;;;5032247;28;20376;-44
2021/10/11 12:21:37;;;;;;;6.47;2.60;;;;;;;;;;5032093;28;20026;-44
2021/10/11 12:24:17;;;;;;;6.60;2.95;;;;;;;;;;5032127;28;20381;-45
2021/10/11 12:26:49;;;;;;;6.40;2.80;;;;;;;;;;5032044;28;20428;-43
2021/10/11 12:29:16;;;;;;;7.10;2.70;;;;;;;;;;5032113;28;20029;-46
2021/10/11 12:31:43;;;;;;;6.32;2.88;;;;;;;;;;5031897;28;20049;-47
2021/10/11 12:34:14;;;;;;;6.70;2.53;;;;;;;;;;5031985;28;20377;-42
2021/10/11 12:36:52;;;;;;;7.55;2.88;;;;;;;;;;5032292;28;20041;-48
2021/10/11 12:39:20;;;;;;;6.25;2.90;;;;;;;;;;5032329;28;20103;-45
2021/10/11 12:41:50;;;;;;;6.28;2.38;;;;;;;;;;5032055;28;20018;-45
2021/10/11 12:44:23;;;;;;;6.25;2.90;;;;;;;;;;5032145;28;20056;-44
2021/10/11 12:46:51;;;;;;;4.80;2.45;;;;;;;;;;5032172;28;20022;-43
2021/10/11 12:49:19;;;;;;;4.78;2.40;;;;;;;;;;5031780;28;20024;-44
2021/10/11 12:51:50;;;;;;;5.38;2.40;;;;;;;;;;5030260;28;20541;-46
2021/10/11 12:54:23;;;;;;;3.90;2.40;;;;;;;;;;5030201;28;20032;-59
2021/10/11 12:56:51;;;;;;;6.20;2.50;;;;;;;;;;5030359;28;20409;-42
2021/10/11 12:59:19;;;;;;;3.53;2.20;;;;;;;;;;5030938;28;20017;-45
2021/10/11 13:01:48;;;;;;;5.95;2.70;;;;;;;;;;5030599;28;20504;-40
2021/10/11 13:04:15;;;;;;;7.10;2.88;;;;;;;;;;5030299;28;20084;-43
2021/10/11 13:06:48;;;;;;;3.53;2.15;;;;;;;;;;5028212;28;20029;-49
2021/10/11 13:09:16;;;;;;;3.63;2.40;;;;;;;;;;5034518;28;20025;-40
2021/10/11 13:11:43;;;;;;;3.88;2.20;;;;;;;;;;5035048;28;20022;-43
2021/10/11 13:14:10;;;;;;;4.00;2.35;;;;;;;;;;5034901;28;20030;-43
2021/10/11 13:16:38;;;;;;;6.10;2.30;;;;;;;;;;5033895;28;20041;-45
2021/10/11 13:19:05;;;;;;;3.80;2.42;;;;;;;;;;5034529;28;20095;-48
2021/10/11 13:21:33;;;;;;;4.03;2.20;;;;;;;;;;5034329;28;20147;-47
2021/10/11 13:24:00;;;;;;;5.80;2.30;;;;;;;;;;5031663;28;20037;-41
2021/10/11 13:26:27;;;;;;;6.97;2.38;;;;;;;;;;5024096;28;20112;-42
2021/10/11 13:29:05;;;;;;;7.15;2.42;;;;;;;;;;5032308;28;20362;-43
2021/10/11 14:29:13;;;;;;;13.93;2.90;;;;;;;;;;4940973;29;20039;-41
2021/10/11 14:32:00;;;;;;;13.73;3.85;;;;;;;;;;4939221;29;20122;-42
2021/10/11 16:00:02;;;;;;;23.67;5.30;;;;;;;;;;5032692;28;20051;-49
2021/10/11 16:04:58;;;;;;;24.08;4.88;;;;;;;;;;5030946;28;20021;-45
2021/10/11 16:07:25;;;;;;;33.08;7.10;;;;;;;;;;5030990;28;20048;-47
2021/10/11 16:09:53;;;;;;;33.78;5.78;;;;;;;;;;5032147;28;20013;-50
2021/10/11 16:12:20;;;;;;;23.77;5.70;;;;;;;;;;5031416;28;20021;-45
2021/10/11 16:14:47;;;;;;;21.65;5.90;;;;;;;;;;5027603;28;20025;-48
2021/10/11 16:17:14;;;;;;;22.35;6.07;;;;;;;;;;5030070;28;20026;-39
2021/10/11 16:19:41;;;;;;;27.08;5.75;;;;;;;;;;5031582;28;20021;-41
2021/10/11 16:22:08;;;;;;;26.20;5.65;;;;;;;;;;5031540;28;20417;-45
2021/10/11 16:24:35;;;;;;;30.20;5.53;;;;;;;;;;5030718;28;20036;-51
2021/10/11 16:27:02;;;;;;;32.08;5.38;;;;;;;;;;5030745;28;20048;-55
2021/10/11 16:29:29;;;;;;;27.13;5.68;;;;;;;;;;5031084;28;20030;-40
2021/10/11 16:31:56;;;;;;;23.92;5.38;;;;;;;;;;5030312;28;20048;-42
2021/10/11 16:34:25;;;;;;;28.38;5.82;;;;;;;;;;5030550;28;20030;-41
2021/10/11 16:36:53;;;;;;;21.63;5.60;;;;;;;;;;5011207;28;20034;-44
2021/10/11 16:39:20;;;;;;;26.98;6.25;;;;;;;;;;5031594;28;20032;-44
2021/10/11 16:41:47;;;;;;;27.38;6.53;;;;;;;;;;5031003;28;20478;-46
2021/10/11 16:44:14;;;;;;;26.45;6.22;;;;;;;;;;5034963;28;20404;-43
2021/10/11 16:46:41;;;;;;;30.63;8.10;;;;;;;;;;5034428;28;20022;-40
2021/10/11 16:49:09;;;;;;;36.88;7.88;;;;;;;;;;5035561;28;20430;-48
2021/10/11 16:51:36;;;;;;;34.50;9.85;;;;;;;;;;5035211;28;20393;-42
2021/10/11 16:56:30;;;;;;;83.00;23.40;;;;;;;;;;5034810;28;20086;-46
2021/10/11 16:59:02;;;;;;;96.43;33.55;;;;;;;;;;5034097;28;20025;-43
2021/10/11 17:01:29;;;;;;;119.30;43.35;;;;;;;;;;5034785;28;20477;-55
2021/10/11 17:04:02;;;;;;;101.55;39.42;;;;;;;;;;5034780;28;20120;-48